createdAt,value
2022-10-17T00:02:19.643Z,101385.50
2022-10-17T00:04:46.711Z,101381.22
2022-10-17T00:07:13.257Z,101377.00
2022-10-17T00:09:42.940Z,101366.22
2022-10-17T00:12:10.203Z,101366.22
2022-10-17T00:14:37.536Z,101379.25
2022-10-17T00:17:05.198Z,101367.09
2022-10-17T00:19:31.841Z,101364.00
2022-10-17T00:21:58.457Z,101356.72
2022-10-17T00:24:25.106Z,101346.66
2022-10-17T00:26:51.715Z,101345.91
2022-10-17T00:29:19.199Z,101343.09
2022-10-17T00:31:47.715Z,101345.31
2022-10-17T00:34:14.366Z,101331.38
2022-10-17T00:36:40.991Z,101335.88
2022-10-17T00:39:07.691Z,101349.13
2022-10-17T00:41:34.633Z,101343.44
2022-10-17T00:44:26.995Z,101340.84
2022-10-17T00:46:54.262Z,101343.66
2022-10-17T00:49:23.241Z,101348.34
2022-10-17T00:51:54.470Z,101353.63
2022-10-17T00:54:25.513Z,101347.34
2022-10-17T00:56:52.875Z,101347.81
2022-10-17T00:59:21.921Z,101339.28
2022-10-17T01:02:00.054Z,101341.75
2022-10-17T01:04:26.671Z,101334.88
2022-10-17T01:06:53.406Z,101338.09
2022-10-17T01:09:20.484Z,101324.72
2022-10-17T01:12:00.453Z,101343.19
2022-10-17T01:15:01.164Z,101353.13
2022-10-17T01:18:12.633Z,101347.84
2022-10-17T01:21:17.891Z,101343.84
2022-10-17T01:23:57.847Z,101345.06
2022-10-17T01:26:58.911Z,101340.63
2022-10-17T01:29:25.700Z,101335.13
2022-10-17T01:31:58.642Z,101324.03
2022-10-17T01:34:35.928Z,101328.31
2022-10-17T01:37:04.742Z,101326.31
2022-10-17T01:39:45.646Z,101331.38
2022-10-17T01:42:45.081Z,101333.03
2022-10-17T01:45:31.269Z,101336.69
2022-10-17T01:48:07.565Z,101349.47
2022-10-17T01:50:41.562Z,101342.41
2022-10-17T01:53:14.645Z,101339.56
2022-10-17T01:55:44.877Z,101337.34
2022-10-17T01:58:23.252Z,101329.22
2022-10-17T02:00:51.985Z,101337.28
2022-10-17T02:03:21.003Z,101327.78
2022-10-17T02:05:48.043Z,101331.41
2022-10-17T02:08:24.468Z,101335.03
2022-10-17T02:10:58.261Z,101324.09
2022-10-17T02:13:37.570Z,101323.31
2022-10-17T02:16:16.712Z,101315.22
2022-10-17T02:19:01.498Z,101324.75
2022-10-17T02:21:40.044Z,101320.28
2022-10-17T02:24:36.018Z,101315.19
2022-10-17T02:27:13.606Z,101319.88
2022-10-17T02:30:20.193Z,101316.84
2022-10-17T02:32:57.527Z,101318.22
2022-10-17T02:35:30.255Z,101325.09
2022-10-17T02:37:58.325Z,101320.25
2022-10-17T02:40:27.853Z,101323.28
2022-10-17T02:42:55.874Z,101314.59
2022-10-17T02:45:26.656Z,101314.41
2022-10-17T02:48:15.273Z,101310.41
2022-10-17T02:51:12.025Z,101329.84
2022-10-17T02:53:48.365Z,101317.66
2022-10-17T02:56:19.569Z,101318.91
2022-10-17T02:58:52.429Z,101315.66
2022-10-17T03:01:19.900Z,101316.28
2022-10-17T03:03:46.700Z,101317.66
2022-10-17T03:06:13.540Z,101307.53
2022-10-17T03:08:40.147Z,101309.41
2022-10-17T03:11:07.228Z,101313.25
2022-10-17T03:13:36.329Z,101298.44
2022-10-17T03:16:06.594Z,101299.88
2022-10-17T03:18:33.540Z,101308.22
2022-10-17T03:21:02.552Z,101304.63
2022-10-17T03:23:29.567Z,101303.22
2022-10-17T03:25:56.238Z,101291.47
2022-10-17T03:28:24.695Z,101302.41
2022-10-17T03:30:51.319Z,101309.31
2022-10-17T03:33:17.941Z,101310.97
2022-10-17T03:35:45.056Z,101306.91
2022-10-17T03:38:11.833Z,101309.94
2022-10-17T03:40:38.838Z,101304.91
2022-10-17T03:43:05.806Z,101300.25
2022-10-17T03:45:32.799Z,101301.44
2022-10-17T03:48:00.107Z,101298.84
2022-10-17T03:50:26.817Z,101303.53
2022-10-17T03:52:53.683Z,101318.75
2022-10-17T03:55:20.349Z,101325.81
2022-10-17T03:57:47.643Z,101329.88
2022-10-17T04:00:16.619Z,101335.75
2022-10-17T04:02:51.605Z,101335.13
2022-10-17T04:05:19.327Z,101328.66
2022-10-17T04:07:47.282Z,101315.69
2022-10-17T04:10:15.837Z,101323.41
2022-10-17T04:12:42.631Z,101329.28
2022-10-17T04:15:09.990Z,101329.66
2022-10-17T04:17:38.221Z,101330.88
2022-10-17T04:20:07.153Z,101341.84
2022-10-17T04:22:34.371Z,101348.13
2022-10-17T04:25:01.289Z,101353.22
2022-10-17T04:27:34.227Z,101349.16
2022-10-17T04:30:01.099Z,101352.59
2022-10-17T04:32:30.781Z,101360.69
2022-10-17T04:35:02.209Z,101368.81
2022-10-17T04:37:30.364Z,101380.16
2022-10-17T04:39:58.083Z,101383.78
2022-10-17T04:42:24.849Z,101387.47
2022-10-17T04:44:53.946Z,101395.59
2022-10-17T04:47:24.751Z,101382.78
2022-10-17T04:49:52.872Z,101393.41
2022-10-17T04:52:21.733Z,101380.59
2022-10-17T04:54:49.978Z,101368.22
2022-10-17T04:57:18.575Z,101365.38
2022-10-17T04:59:54.170Z,101371.06
2022-10-17T05:02:26.413Z,101364.56
2022-10-17T05:04:53.228Z,101374.88
2022-10-17T05:07:20.958Z,101373.03
2022-10-17T05:09:56.540Z,101390.28
2022-10-17T05:12:23.318Z,101386.03
2022-10-17T05:14:49.937Z,101382.81
2022-10-17T05:17:16.847Z,101379.34
2022-10-17T05:19:44.033Z,101400.63
2022-10-17T05:22:10.852Z,101395.78
2022-10-17T05:24:37.540Z,101387.25
2022-10-17T05:27:04.201Z,101382.00
2022-10-17T05:29:33.176Z,101382.56
2022-10-17T05:32:08.046Z,101386.66
2022-10-17T05:34:35.526Z,101390.09
2022-10-17T05:37:02.102Z,101401.66
2022-10-17T05:39:28.995Z,101405.09
2022-10-17T05:41:56.973Z,101400.00
2022-10-17T05:44:23.801Z,101392.91
2022-10-17T05:46:55.454Z,101386.63
2022-10-17T05:49:33.286Z,101386.78
2022-10-17T05:52:10.022Z,101398.75
2022-10-17T05:54:50.792Z,101393.47
2022-10-17T05:57:17.703Z,101384.41
2022-10-17T05:59:44.437Z,101385.13
2022-10-17T06:02:14.010Z,101393.66
2022-10-17T06:04:45.451Z,101392.63
2022-10-17T06:07:13.313Z,101393.84
2022-10-17T06:09:40.722Z,101392.63
2022-10-17T06:12:08.895Z,101400.97
2022-10-17T06:14:35.911Z,101395.28
2022-10-17T06:17:04.203Z,101401.34
2022-10-17T06:19:31.150Z,101411.09
2022-10-17T06:21:57.794Z,101405.00
2022-10-17T06:24:26.548Z,101408.22
2022-10-17T06:26:53.799Z,101412.31
2022-10-17T06:29:21.544Z,101423.50
2022-10-17T06:31:51.077Z,101426.50
2022-10-17T06:34:19.052Z,101418.19
2022-10-17T06:36:46.428Z,101419.38
2022-10-17T06:39:13.752Z,101418.34
2022-10-17T06:41:45.970Z,101433.75
2022-10-17T06:44:17.921Z,101438.81
2022-10-17T06:47:03.310Z,101439.03
2022-10-17T06:49:30.057Z,101437.19
2022-10-17T06:52:17.123Z,101438.53
2022-10-17T06:55:00.551Z,101448.72
2022-10-17T06:57:34.196Z,101445.84
2022-10-17T07:00:39.258Z,101446.25
2022-10-17T07:03:05.930Z,101450.66
2022-10-17T07:05:32.790Z,101446.44
2022-10-17T07:08:00.138Z,101443.75
2022-10-17T07:10:27.095Z,101455.13
2022-10-17T07:12:55.730Z,101450.25
2022-10-17T07:15:22.526Z,101455.53
2022-10-17T07:17:52.610Z,101468.94
2022-10-17T07:20:20.417Z,101472.97
2022-10-17T07:22:47.108Z,101483.53
2022-10-17T07:25:14.621Z,101484.81
2022-10-17T07:27:51.353Z,101494.81
2022-10-17T07:30:19.307Z,101548.47
2022-10-17T07:33:15.026Z,101596.66
2022-10-17T07:35:42.105Z,101606.22
2022-10-17T07:38:10.304Z,101626.56
2022-10-17T07:40:37.391Z,101620.50
2022-10-17T07:43:05.055Z,101609.72
2022-10-17T07:45:32.227Z,101586.97
2022-10-17T07:47:59.120Z,101597.94
2022-10-17T07:50:26.501Z,101584.94
2022-10-17T07:52:53.085Z,101589.00
2022-10-17T07:55:19.725Z,101574.38
2022-10-17T07:57:46.406Z,101575.59
2022-10-17T08:00:13.189Z,101577.66
2022-10-17T08:02:41.419Z,101601.00
2022-10-17T08:05:08.401Z,101610.34
2022-10-17T08:07:34.962Z,101612.97
2022-10-17T08:10:01.949Z,101611.13
2022-10-17T08:12:32.530Z,101675.72
2022-10-17T08:15:00.909Z,101698.25
2022-10-17T08:17:27.786Z,101710.44
2022-10-17T08:19:54.937Z,101710.44
2022-10-17T08:22:21.652Z,101721.00
2022-10-17T08:24:48.336Z,101691.75
2022-10-17T08:27:15.685Z,101696.25
2022-10-17T08:29:42.298Z,101698.69
2022-10-17T08:32:10.208Z,101663.34
2022-10-17T08:34:37.124Z,101627.59
2022-10-17T08:37:04.856Z,101636.56
2022-10-17T08:39:32.051Z,101646.66
2022-10-17T08:42:40.626Z,101661.94
2022-10-17T08:45:21.360Z,101648.53
2022-10-17T08:47:53.107Z,101660.53
2022-10-17T08:50:41.302Z,101651.59
2022-10-17T08:53:07.913Z,101653.22
2022-10-17T08:55:45.841Z,101664.59
2022-10-17T08:58:22.852Z,101652.41
2022-10-17T09:00:54.248Z,101657.69
2022-10-17T09:03:39.708Z,101677.78
2022-10-17T09:06:25.273Z,101723.09
2022-10-17T09:09:15.222Z,101727.34
2022-10-17T09:12:03.837Z,101756.19
2022-10-17T09:14:37.038Z,101712.13
2022-10-17T09:17:22.269Z,101666.22
2022-10-17T09:20:09.944Z,101672.50
2022-10-17T09:22:49.980Z,101670.25
2022-10-17T09:25:18.847Z,101639.41
2022-10-17T09:28:12.532Z,101662.75
2022-10-17T09:30:54.327Z,101667.66
2022-10-17T09:33:35.345Z,101666.22
2022-10-17T09:36:14.813Z,101668.66
2022-10-17T09:38:44.756Z,101668.44
2022-10-17T09:41:46.014Z,101696.69
2022-10-17T09:44:29.251Z,101693.84
2022-10-17T09:47:22.528Z,101680.63
2022-10-17T09:49:52.713Z,101663.38
2022-10-17T09:52:32.267Z,101678.41
2022-10-17T09:55:22.503Z,101688.34
2022-10-17T09:58:00.090Z,101683.50
2022-10-17T10:00:34.037Z,101687.56
2022-10-17T10:03:12.818Z,101696.28
2022-10-17T10:05:40.763Z,101688.97
2022-10-17T10:08:15.879Z,101695.25
2022-10-17T10:10:43.671Z,101707.66
2022-10-17T10:13:13.186Z,101706.47
2022-10-17T10:15:41.364Z,101713.13
2022-10-17T10:18:26.563Z,101736.09
2022-10-17T10:21:20.202Z,101746.25
2022-10-17T10:24:09.832Z,101750.75
2022-10-17T10:26:43.813Z,101755.63
2022-10-17T10:29:49.297Z,101773.09
2022-10-17T10:35:08.701Z,101787.31
2022-10-17T10:37:43.413Z,101779.59
2022-10-17T10:40:20.639Z,101801.75
2022-10-17T10:42:50.633Z,101809.69
2022-10-17T10:45:42.802Z,101812.94
2022-10-17T10:48:21.531Z,101815.59
2022-10-17T10:50:59.417Z,101810.31
2022-10-17T10:53:41.319Z,101811.31
2022-10-17T10:56:20.495Z,101803.38
2022-10-17T10:59:13.670Z,101799.72
2022-10-17T11:01:56.537Z,101810.09
2022-10-17T11:04:33.174Z,101817.22
2022-10-17T11:07:13.499Z,101809.91
2022-10-17T11:09:58.774Z,101811.31
2022-10-17T11:12:30.667Z,101834.94
2022-10-17T11:15:00.383Z,101839.00
2022-10-17T11:17:51.346Z,101839.38
2022-10-17T11:20:47.453Z,101843.66
2022-10-17T11:23:24.033Z,101837.16
2022-10-17T11:25:52.656Z,101851.38
2022-10-17T11:28:22.972Z,101852.59
2022-10-17T11:31:15.804Z,101860.53
2022-10-17T11:33:59.773Z,101859.53
2022-10-17T11:36:31.111Z,101862.56
2022-10-17T11:39:02.340Z,101864.81
2022-10-17T11:41:46.268Z,101860.75
2022-10-17T11:44:33.997Z,101871.53
2022-10-17T11:47:07.369Z,101871.31
2022-10-17T11:49:41.798Z,101877.66
2022-10-17T11:52:56.108Z,101867.47
2022-10-17T11:55:29.481Z,101875.94
2022-10-17T11:58:13.840Z,101860.50
2022-10-17T12:00:53.610Z,101876.78
2022-10-17T12:03:32.588Z,101876.59
2022-10-17T12:06:15.974Z,101882.88
2022-10-17T12:09:00.846Z,101890.59
2022-10-17T12:11:41.450Z,101887.16
2022-10-17T12:14:38.998Z,101883.28
2022-10-17T12:17:22.534Z,101880.81
2022-10-17T12:19:49.370Z,101887.16
2022-10-17T12:22:21.037Z,101884.25
2022-10-17T12:24:59.781Z,101867.81
2022-10-17T12:27:47.308Z,101876.34
2022-10-17T12:30:24.149Z,101882.78
2022-10-17T12:33:07.703Z,101878.53
2022-10-17T12:35:37.537Z,101881.84
2022-10-17T12:38:19.354Z,101878.78
2022-10-17T12:40:50.631Z,101888.53
2022-10-17T12:43:17.350Z,101895.22
2022-10-17T12:46:00.846Z,101900.94
2022-10-17T12:48:36.417Z,101905.19
2022-10-17T12:54:16.347Z,101915.63
2022-10-17T12:56:48.688Z,101920.56
2022-10-17T12:59:25.694Z,101927.09
2022-10-17T13:01:57.373Z,101933.38
2022-10-17T13:04:25.896Z,101937.44
2022-10-17T13:06:55.694Z,101948.03
2022-10-17T13:09:29.682Z,101952.31
2022-10-17T13:11:58.809Z,101948.47
2022-10-17T13:14:26.764Z,101944.19
2022-10-17T13:17:02.210Z,101949.88
2022-10-17T13:19:47.335Z,101954.97
2022-10-17T13:22:27.016Z,101961.06
2022-10-17T13:25:09.861Z,101964.13
2022-10-17T13:27:37.492Z,101967.34
2022-10-17T13:30:31.234Z,101971.22
2022-10-17T13:33:00.551Z,101976.13
2022-10-17T13:35:58.732Z,101976.94
2022-10-17T13:38:28.984Z,101972.88
2022-10-17T13:41:05.799Z,101983.03
2022-10-17T13:43:38.730Z,101997.69
2022-10-17T13:46:32.556Z,101995.06
2022-10-17T13:48:53.434Z,101999.09
2022-10-17T13:51:20.282Z,102001.56
2022-10-17T13:53:46.949Z,101992.75
2022-10-17T13:56:28.015Z,102005.81
2022-10-17T13:59:04.968Z,102004.59
2022-10-17T14:01:34.861Z,102004.78
2022-10-17T14:04:08.880Z,101997.81
2022-10-17T14:06:46.159Z,101996.00
2022-10-17T14:09:25.612Z,101998.38
2022-10-17T14:12:01.544Z,102013.06
2022-10-17T14:14:32.143Z,102009.22
2022-10-17T14:17:22.344Z,102003.13
2022-10-17T14:20:06.572Z,102000.00
2022-10-17T14:22:39.964Z,102002.88
2022-10-17T14:25:26.789Z,102002.06
2022-10-17T14:28:09.563Z,101991.91
2022-10-17T14:30:57.450Z,102011.28
2022-10-17T14:33:29.564Z,102007.97
2022-10-17T14:35:59.537Z,101992.31
2022-10-17T14:38:27.630Z,102003.34
2022-10-17T14:41:30.578Z,102014.31
2022-10-17T14:44:01.995Z,102005.81
2022-10-17T14:46:29.016Z,101998.91
2022-10-17T14:49:03.460Z,102000.53
2022-10-17T14:51:39.948Z,102000.13
2022-10-17T14:54:25.898Z,102005.81
2022-10-17T14:56:54.890Z,101996.47
2022-10-17T14:59:52.097Z,102011.97
2022-10-17T15:02:13.607Z,102020.91
2022-10-17T15:04:40.392Z,102011.53
2022-10-17T15:07:07.019Z,102015.00
2022-10-17T15:09:33.711Z,102015.19
2022-10-17T15:12:02.513Z,102040.88
2022-10-17T15:14:29.428Z,102041.69
2022-10-17T15:16:56.612Z,102044.75
2022-10-17T15:19:23.380Z,102052.28
2022-10-17T15:21:49.966Z,102056.31
2022-10-17T15:24:16.478Z,102071.00
2022-10-17T15:26:43.225Z,102069.78
2022-10-17T15:29:15.963Z,102073.25
2022-10-17T15:31:42.600Z,102078.38
2022-10-17T15:34:09.399Z,102086.47
2022-10-17T15:36:40.183Z,102097.06
2022-10-17T15:39:07.158Z,102088.13
2022-10-17T15:41:34.003Z,102081.19
2022-10-17T15:44:00.771Z,102088.75
2022-10-17T15:46:30.205Z,102079.97
2022-10-17T15:49:01.292Z,102085.06
2022-10-17T15:51:27.889Z,102082.03
2022-10-17T15:53:54.519Z,102088.09
2022-10-17T15:56:41.813Z,102093.16
2022-10-17T15:59:14.720Z,102106.41
2022-10-17T16:01:42.501Z,102112.09
2022-10-17T16:04:15.160Z,102119.78
2022-10-17T16:06:42.655Z,102110.63
2022-10-17T16:09:10.035Z,102114.66
2022-10-17T16:11:42.505Z,102113.84
2022-10-17T16:14:15.845Z,102110.50
2022-10-17T16:16:42.554Z,102107.28
2022-10-17T16:19:09.713Z,102109.28
2022-10-17T16:21:39.031Z,102111.09
2022-10-17T16:24:12.261Z,102117.38
2022-10-17T16:26:40.381Z,102123.09
2022-10-17T16:29:07.169Z,102117.75
2022-10-17T16:31:36.293Z,102119.97
2022-10-17T16:34:04.509Z,102130.16
2022-10-17T16:36:31.335Z,102121.16
2022-10-17T16:38:58.679Z,102107.47
2022-10-17T16:41:34.257Z,102138.63
2022-10-17T16:44:04.338Z,102138.41
2022-10-17T16:46:32.205Z,102134.69
2022-10-17T16:48:59.931Z,102137.78
2022-10-17T16:51:26.751Z,102134.13
2022-10-17T16:53:54.672Z,102133.44
2022-10-17T16:56:23.102Z,102134.28
2022-10-17T16:58:50.581Z,102140.97
2022-10-17T17:01:23.206Z,102135.19
2022-10-17T17:03:51.240Z,102142.88
2022-10-17T17:06:21.260Z,102150.41
2022-10-17T17:08:47.961Z,102137.56
2022-10-17T17:11:17.060Z,102158.28
2022-10-17T17:13:44.039Z,102155.84
2022-10-17T17:16:13.473Z,102151.13
2022-10-17T17:18:41.470Z,102159.50
2022-10-17T17:21:10.285Z,102145.44
2022-10-17T17:23:40.081Z,102163.91
2022-10-17T17:26:10.867Z,102161.28
2022-10-17T17:28:40.875Z,102170.84
2022-10-17T17:31:13.180Z,102174.47
2022-10-17T17:33:41.351Z,102178.13
2022-10-17T17:36:10.409Z,102173.94
2022-10-17T17:38:37.200Z,102169.84
2022-10-17T17:41:04.212Z,102172.25
2022-10-17T17:43:32.685Z,102189.78
2022-10-17T17:46:02.518Z,102177.47
2022-10-17T17:48:29.671Z,102198.47
2022-10-17T17:50:56.733Z,102201.09
2022-10-17T17:53:24.810Z,102206.19
2022-10-17T17:56:06.250Z,102204.13
2022-10-17T17:58:39.221Z,102199.84
2022-10-17T18:01:13.201Z,102194.75
2022-10-17T18:03:41.527Z,102189.66
2022-10-17T18:06:08.739Z,102187.22
2022-10-17T18:08:36.110Z,102184.13
2022-10-17T18:11:03.968Z,102189.66
2022-10-17T18:13:30.906Z,102189.88
2022-10-17T18:15:59.533Z,102193.69
2022-10-17T18:18:28.337Z,102206.06
2022-10-17T18:20:55.191Z,102205.06
2022-10-17T18:23:22.787Z,102214.44
2022-10-17T18:26:00.941Z,102214.81
2022-10-17T18:28:27.830Z,102225.38
2022-10-17T18:30:54.705Z,102224.53
2022-10-17T18:33:21.574Z,102219.84
2022-10-17T18:35:48.368Z,102222.66
2022-10-17T18:38:15.006Z,102224.72
2022-10-17T18:40:41.550Z,102210.66
2022-10-17T18:43:08.386Z,102224.28
2022-10-17T18:45:35.013Z,102215.88
2022-10-17T18:48:01.676Z,102224.47
2022-10-17T18:50:28.410Z,102221.94
2022-10-17T18:52:57.630Z,102221.56
2022-10-17T18:55:31.742Z,102220.31
2022-10-17T19:03:35.972Z,102225.31
2022-10-17T19:06:04.561Z,102233.09
2022-10-17T19:08:31.401Z,102241.81
2022-10-17T19:10:57.994Z,102237.53
2022-10-17T19:13:33.442Z,102223.88
2022-10-17T19:16:30.151Z,102234.88
2022-10-17T19:18:59.656Z,102236.16
2022-10-17T19:21:26.380Z,102241.81
2022-10-17T19:23:58.793Z,102246.09
2022-10-17T19:26:26.778Z,102254.34
2022-10-17T19:28:54.147Z,102255.72
2022-10-17T19:31:26.996Z,102267.38
2022-10-17T19:33:55.482Z,102261.47
2022-10-17T19:36:27.472Z,102250.63
2022-10-17T19:38:57.491Z,102262.47
2022-10-17T19:41:24.511Z,102256.38
2022-10-17T19:43:51.582Z,102259.63
2022-10-17T19:46:20.754Z,102260.28
2022-10-17T19:48:49.079Z,102270.63
2022-10-17T19:51:17.221Z,102259.53
2022-10-17T19:53:44.975Z,102257.91
2022-10-17T19:56:12.290Z,102270.72
2022-10-17T19:58:46.332Z,102268.47
2022-10-17T20:01:20.250Z,102266.81
2022-10-17T20:03:47.243Z,102258.44
2022-10-17T20:06:14.464Z,102278.25
2022-10-17T20:08:42.205Z,102276.00
2022-10-17T20:11:12.121Z,102267.00
2022-10-17T20:13:39.408Z,102261.72
2022-10-17T20:16:08.634Z,102267.81
2022-10-17T20:18:35.362Z,102266.56
2022-10-17T20:21:05.071Z,102270.94
2022-10-17T20:23:32.091Z,102267.19
2022-10-17T20:26:13.251Z,102279.13
2022-10-17T20:28:46.352Z,102288.38
2022-10-17T20:31:13.637Z,102286.59
2022-10-17T20:33:41.479Z,102291.03
2022-10-17T20:36:11.296Z,102288.78
2022-10-17T20:38:38.434Z,102287.97
2022-10-17T20:41:07.244Z,102288.78
2022-10-17T20:43:34.540Z,102299.31
2022-10-17T20:46:08.691Z,102289.69
2022-10-17T20:48:52.177Z,102296.13
2022-10-17T20:51:19.439Z,102294.16
2022-10-17T20:53:46.569Z,102303.06
2022-10-17T20:56:21.856Z,102305.25
2022-10-17T20:58:59.892Z,102292.78
2022-10-17T21:01:28.209Z,102303.63
2022-10-17T21:03:54.930Z,102306.78
2022-10-17T21:06:21.828Z,102288.44
2022-10-17T21:08:49.480Z,102290.97
2022-10-17T21:11:17.818Z,102300.72
2022-10-17T21:13:45.733Z,102293.16
2022-10-17T21:16:19.231Z,102304.25
2022-10-17T21:18:46.235Z,102303.06
2022-10-17T21:21:21.528Z,102301.63
2022-10-17T21:23:50.408Z,102309.91
2022-10-17T21:26:18.220Z,102314.34
2022-10-17T21:28:46.242Z,102319.59
2022-10-17T21:31:17.419Z,102329.16
2022-10-17T21:33:48.668Z,102328.88
2022-10-17T21:36:16.844Z,102329.53
2022-10-17T21:38:45.755Z,102329.69
2022-10-17T21:41:14.369Z,102327.25
2022-10-17T21:43:41.813Z,102328.88
2022-10-17T21:46:17.243Z,102327.78
2022-10-17T21:48:45.514Z,102337.69
2022-10-17T21:51:15.004Z,102343.63
2022-10-17T21:53:42.437Z,102346.97
2022-10-17T21:56:14.431Z,102345.50
2022-10-17T21:58:42.055Z,102342.63
2022-10-17T22:01:15.547Z,102346.06
2022-10-17T22:03:46.810Z,102351.16
2022-10-17T22:09:28.258Z,102361.78
2022-10-17T22:11:56.667Z,102359.63
2022-10-17T22:14:27.053Z,102357.63
2022-10-17T22:16:54.365Z,102362.09
2022-10-17T22:19:26.139Z,102364.06
2022-10-17T22:21:53.055Z,102364.06
2022-10-17T22:26:52.735Z,102356.44
2022-10-17T22:29:19.939Z,102357.44
2022-10-17T22:31:46.944Z,102339.72
2022-10-17T22:34:15.487Z,102351.44
2022-10-17T22:36:42.664Z,102343.38
2022-10-17T22:39:09.866Z,102357.22
2022-10-17T22:41:36.812Z,102361.84
2022-10-17T22:44:03.554Z,102359.72
2022-10-17T22:46:30.297Z,102348.88
2022-10-17T22:48:56.945Z,102356.19
2022-10-17T22:53:55.116Z,102359.63
2022-10-17T22:56:22.811Z,102364.88
2022-10-17T22:58:49.931Z,102363.53
2022-10-17T23:01:21.581Z,102371.91
2022-10-17T23:03:48.524Z,102377.19
2022-10-17T23:06:15.328Z,102376.53
2022-10-17T23:08:42.719Z,102376.34
2022-10-17T23:11:10.291Z,102366.16
2022-10-17T23:13:37.363Z,102366.81
2022-10-17T23:16:04.131Z,102364.19
2022-10-17T23:20:57.315Z,102375.53
2022-10-17T23:23:24.056Z,102362.53
2022-10-17T23:25:51.579Z,102360.44
2022-10-17T23:28:18.279Z,102367.06
2022-10-17T23:30:45.255Z,102362.91
2022-10-17T23:33:13.343Z,102360.09
2022-10-17T23:35:40.426Z,102364.63
2022-10-17T23:38:07.303Z,102375.69
2022-10-17T23:40:35.551Z,102370.03
2022-10-17T23:43:02.910Z,102359.84
2022-10-17T23:45:33.393Z,102360.19
2022-10-17T23:48:04.858Z,102361.50
2022-10-17T23:50:31.601Z,102365.59
2022-10-17T23:52:58.205Z,102366.09
2022-10-17T23:55:24.787Z,102366.66
2022-10-17T23:57:51.337Z,102363.34
